createdAt,value
2019-04-10T00:02:01.521Z,10.30
2019-04-10T00:06:06.981Z,10.40
2019-04-10T00:10:12.712Z,10.30
2019-04-10T00:14:20.524Z,10.30
2019-04-10T00:18:26.281Z,10.20
2019-04-10T00:22:31.504Z,10.00
2019-04-10T00:26:37.505Z,10.00
2019-04-10T00:30:43.039Z,9.90
2019-04-10T00:34:48.423Z,9.90
2019-04-10T00:38:53.857Z,9.80
2019-04-10T00:43:00.243Z,9.80
2019-04-10T00:47:06.523Z,9.70
2019-04-10T00:51:12.030Z,9.70
2019-04-10T00:55:17.137Z,9.70
2019-04-10T00:59:22.286Z,9.60
2019-04-10T01:03:48.039Z,9.50
2019-04-10T01:07:52.531Z,9.40
2019-04-10T01:11:59.281Z,9.20
2019-04-10T01:16:04.739Z,9.20
2019-04-10T01:20:10.701Z,9.00
2019-04-10T01:24:15.991Z,9.00
2019-04-10T01:28:21.220Z,8.90
2019-04-10T01:32:26.386Z,9.00
2019-04-10T01:36:31.659Z,8.90
2019-04-10T01:40:39.400Z,8.80
2019-04-10T01:44:44.806Z,8.90
2019-04-10T01:48:51.018Z,8.90
2019-04-10T01:52:57.428Z,8.80
2019-04-10T01:57:02.666Z,8.80
2019-04-10T02:01:16.517Z,8.70
2019-04-10T02:05:22.709Z,8.70
2019-04-10T02:09:28.083Z,8.60
2019-04-10T02:13:33.837Z,8.60
2019-04-10T02:17:39.326Z,8.60
2019-04-10T02:21:44.691Z,8.60
2019-04-10T02:25:49.894Z,8.50
2019-04-10T02:29:55.770Z,8.50
2019-04-10T02:34:01.517Z,8.40
2019-04-10T02:38:29.150Z,8.50
2019-04-10T02:42:14.474Z,8.50
2019-04-10T02:46:19.722Z,8.50
2019-04-10T02:50:25.381Z,8.50
2019-04-10T02:54:31.065Z,8.50
2019-04-10T02:58:36.430Z,8.50
2019-04-10T03:02:42.020Z,8.50
2019-04-10T03:06:47.937Z,8.50
2019-04-10T03:10:59.706Z,8.50
2019-04-10T03:15:01.129Z,8.60
2019-04-10T03:19:07.463Z,8.60
2019-04-10T03:23:13.508Z,8.50
2019-04-10T03:27:19.211Z,8.60
2019-04-10T03:31:25.397Z,8.70
2019-04-10T03:35:41.421Z,8.80
2019-04-10T03:39:46.777Z,8.70
2019-04-10T03:43:52.435Z,8.70
2019-04-10T03:47:57.982Z,8.70
2019-04-10T03:52:03.541Z,8.80
2019-04-10T03:56:09.588Z,8.90
2019-04-10T04:00:16.120Z,8.80
2019-04-10T04:04:21.613Z,8.80
2019-04-10T04:08:27.800Z,8.90
2019-04-10T04:12:33.055Z,8.90
2019-04-10T04:16:39.207Z,8.90
2019-04-10T04:20:45.369Z,8.90
2019-04-10T04:24:50.935Z,8.90
2019-04-10T04:28:56.103Z,8.90
2019-04-10T04:33:02.319Z,8.90
2019-04-10T04:37:07.968Z,9.00
2019-04-10T04:41:13.370Z,9.00
2019-04-10T04:45:19.481Z,9.00
2019-04-10T04:49:24.957Z,9.00
2019-04-10T04:53:30.315Z,9.00
2019-04-10T05:01:36.098Z,9.10
2019-04-10T05:05:41.331Z,9.10
2019-04-10T05:09:46.541Z,9.10
2019-04-10T05:13:52.999Z,9.20
2019-04-10T05:17:58.305Z,9.10
2019-04-10T05:22:03.880Z,9.30
2019-04-10T05:26:10.826Z,9.30
2019-04-10T05:30:16.431Z,9.20
2019-04-10T05:34:21.987Z,9.30
2019-04-10T05:38:27.467Z,9.30
2019-04-10T05:42:33.117Z,9.20
2019-04-10T05:46:38.856Z,9.30
2019-04-10T05:50:53.914Z,9.40
2019-04-10T05:54:51.572Z,9.40
2019-04-10T05:58:56.713Z,9.40
2019-04-10T06:03:02.011Z,9.50
2019-04-10T06:07:07.157Z,9.50
2019-04-10T06:11:13.613Z,9.60
2019-04-10T06:15:19.180Z,9.60
2019-04-10T06:19:25.476Z,9.70
2019-04-10T06:23:31.707Z,9.70
2019-04-10T06:27:52.673Z,9.70
2019-04-10T06:32:05.296Z,9.60
2019-04-10T06:36:17.407Z,9.60
2019-04-10T06:40:30.573Z,9.60
2019-04-10T06:44:44.568Z,9.70
2019-04-10T06:48:59.110Z,9.70
2019-04-10T06:53:10.552Z,9.80
2019-04-10T06:57:16.733Z,9.90
2019-04-10T07:01:24.516Z,10.00
2019-04-10T07:05:37.899Z,10.00
2019-04-10T07:09:40.027Z,10.20
2019-04-10T07:13:51.511Z,10.40
2019-04-10T07:18:08.164Z,10.60
2019-04-10T07:22:17.910Z,10.70
2019-04-10T07:26:38.005Z,10.70
2019-04-10T07:30:44.400Z,10.70
2019-04-10T07:34:59.109Z,10.70
2019-04-10T07:39:07.846Z,10.60
2019-04-10T07:43:22.193Z,10.70
2019-04-10T07:47:31.361Z,10.60
2019-04-10T07:51:42.938Z,10.60
2019-04-10T07:56:02.326Z,10.70
2019-04-10T08:00:04.522Z,10.70
2019-04-10T08:04:12.520Z,10.70
2019-04-10T08:08:21.729Z,10.80
2019-04-10T08:12:39.493Z,10.80
2019-04-10T08:16:41.438Z,10.70
2019-04-10T08:20:53.128Z,10.90
2019-04-10T08:25:00.192Z,11.00
2019-04-10T08:29:07.767Z,11.00
2019-04-10T08:33:17.536Z,11.10
2019-04-10T08:37:26.397Z,11.10
2019-04-10T08:41:33.696Z,11.30
2019-04-10T08:45:49.521Z,11.40
2019-04-10T08:49:55.048Z,11.40
2019-04-10T08:54:07.988Z,11.40
2019-04-10T08:58:18.847Z,11.40
2019-04-10T09:02:29.119Z,11.20
2019-04-10T09:06:39.791Z,11.10
2019-04-10T09:10:50.423Z,11.10
2019-04-10T09:15:02.578Z,11.10
2019-04-10T09:19:13.856Z,11.10
2019-04-10T09:23:29.801Z,11.20
2019-04-10T09:27:26.832Z,11.20
2019-04-10T09:31:36.128Z,11.10
2019-04-10T09:35:47.335Z,11.00
2019-04-10T09:39:58.676Z,11.00
2019-04-10T09:44:10.191Z,11.00
2019-04-10T09:48:24.279Z,11.10
2019-04-10T09:52:37.525Z,11.10
2019-04-10T09:56:46.379Z,11.10
2019-04-10T10:00:54.611Z,11.00
2019-04-10T10:05:02.275Z,11.00
2019-04-10T10:09:11.001Z,11.00
2019-04-10T10:13:18.305Z,11.00
2019-04-10T10:17:27.091Z,11.00
2019-04-10T10:21:36.539Z,11.10
2019-04-10T10:25:46.195Z,11.10
2019-04-10T10:29:56.070Z,11.00
2019-04-10T10:34:10.225Z,11.00
2019-04-10T10:38:21.728Z,11.00
2019-04-10T10:42:27.620Z,11.10
2019-04-10T10:46:34.310Z,11.10
2019-04-10T10:50:39.511Z,11.20
2019-04-10T10:54:45.236Z,11.30
2019-04-10T10:58:50.355Z,11.20
2019-04-10T11:02:56.021Z,11.30
2019-04-10T11:07:01.303Z,11.20
2019-04-10T11:11:06.635Z,11.10
2019-04-10T11:15:12.370Z,11.00
2019-04-10T11:19:17.341Z,11.10
2019-04-10T11:23:22.270Z,11.20
2019-04-10T11:27:28.020Z,11.10
2019-04-10T11:31:33.409Z,11.10
2019-04-10T11:35:39.666Z,11.20
2019-04-10T11:39:47.081Z,11.30
2019-04-10T11:43:52.648Z,11.30
2019-04-10T11:47:59.077Z,11.30
2019-04-10T11:52:06.253Z,11.20
2019-04-10T11:56:11.722Z,11.20
2019-04-10T12:00:20.390Z,11.10
2019-04-10T12:04:25.637Z,11.20
2019-04-10T12:09:00.365Z,11.30
2019-04-10T12:12:37.922Z,11.40
2019-04-10T12:16:43.204Z,11.50
2019-04-10T12:20:49.256Z,11.40
2019-04-10T12:24:59.021Z,11.40
2019-04-10T12:29:11.543Z,11.40
2019-04-10T12:33:21.888Z,11.60
2019-04-10T12:37:27.744Z,11.80
2019-04-10T12:41:33.210Z,11.90
2019-04-10T12:45:38.278Z,12.10
2019-04-10T12:49:43.528Z,12.20
2019-04-10T12:53:48.740Z,12.20
2019-04-10T12:58:05.429Z,12.10
2019-04-10T13:02:00.712Z,12.00
2019-04-10T13:06:07.497Z,12.00
2019-04-10T13:10:18.541Z,12.00
2019-04-10T13:14:24.408Z,11.90
2019-04-10T13:18:30.197Z,11.80
2019-04-10T13:22:35.999Z,11.90
2019-04-10T13:26:41.990Z,11.90
2019-04-10T13:30:52.760Z,11.90
2019-04-10T13:34:53.711Z,11.90
2019-04-10T13:38:58.643Z,11.90
2019-04-10T13:43:03.632Z,11.90
2019-04-10T13:47:09.046Z,11.90
2019-04-10T13:51:15.045Z,11.90
2019-04-10T13:55:20.167Z,11.90
2019-04-10T13:59:25.102Z,12.00
2019-04-10T14:03:30.192Z,11.90
2019-04-10T14:07:36.072Z,11.80
2019-04-10T14:11:41.609Z,11.70
2019-04-10T14:15:46.685Z,12.00
2019-04-10T14:19:51.952Z,12.10
2019-04-10T14:23:57.745Z,12.40
2019-04-10T14:28:03.339Z,12.60
2019-04-10T14:32:11.315Z,12.70
2019-04-10T14:36:16.406Z,12.60
2019-04-10T14:40:22.156Z,12.50
2019-04-10T14:44:28.423Z,12.40
2019-04-10T14:48:33.633Z,12.40
2019-04-10T14:52:38.733Z,12.40
2019-04-10T14:56:43.867Z,12.20
2019-04-10T15:00:52.934Z,12.30
2019-04-10T15:04:58.101Z,12.30
2019-04-10T15:09:03.982Z,12.30
2019-04-10T15:13:13.602Z,12.10
2019-04-10T15:17:16.786Z,12.00
2019-04-10T15:21:22.858Z,11.90
2019-04-10T15:25:27.762Z,11.90
2019-04-10T15:29:32.701Z,11.90
2019-04-10T15:33:37.877Z,11.90
2019-04-10T15:37:43.055Z,11.90
2019-04-10T15:41:48.341Z,11.80
2019-04-10T15:45:53.334Z,11.90
2019-04-10T15:49:58.309Z,11.90
2019-04-10T15:54:03.991Z,11.90
2019-04-10T15:58:10.825Z,11.90
2019-04-10T16:02:17.050Z,11.90
2019-04-10T16:06:22.978Z,11.80
2019-04-10T16:10:49.580Z,11.70
2019-04-10T16:14:54.891Z,11.60
2019-04-10T16:19:11.907Z,11.50
2019-04-10T16:23:20.133Z,11.40
2019-04-10T16:27:25.156Z,11.50
2019-04-10T16:31:30.481Z,11.50
2019-04-10T16:35:36.867Z,11.50
2019-04-10T16:39:42.452Z,11.40
2019-04-10T16:43:48.661Z,11.40
2019-04-10T16:47:54.542Z,11.40
2019-04-10T16:52:00.792Z,11.40
2019-04-10T16:56:07.331Z,11.30
2019-04-10T17:00:16.428Z,11.20
2019-04-10T17:04:21.039Z,11.30
2019-04-10T17:08:26.312Z,11.30
2019-04-10T17:12:31.764Z,11.30
2019-04-10T17:16:37.773Z,11.20
2019-04-10T17:20:42.838Z,11.10
2019-04-10T17:24:47.961Z,11.00
2019-04-10T17:28:53.026Z,11.00
2019-04-10T17:32:57.965Z,11.00
2019-04-10T17:37:03.162Z,10.90
2019-04-10T17:41:09.145Z,10.90
2019-04-10T17:45:15.261Z,10.80
2019-04-10T17:49:20.515Z,10.70
2019-04-10T17:53:25.605Z,10.70
2019-04-10T17:57:38.199Z,10.70
2019-04-10T18:01:38.927Z,10.50
2019-04-10T18:05:44.723Z,10.60
2019-04-10T18:09:50.713Z,10.50
2019-04-10T18:13:55.884Z,10.50
2019-04-10T18:18:00.883Z,10.40
2019-04-10T18:22:10.209Z,10.50
2019-04-10T18:26:19.059Z,10.50
2019-04-10T18:30:23.949Z,10.50
2019-04-10T18:34:29.025Z,10.50
2019-04-10T18:38:37.544Z,10.50
2019-04-10T18:42:43.400Z,10.40
2019-04-10T18:46:49.783Z,10.40
2019-04-10T18:50:54.887Z,10.40
2019-04-10T18:55:00.456Z,10.40
2019-04-10T18:59:40.668Z,10.40
2019-04-10T19:04:04.197Z,10.40
2019-04-10T19:08:11.688Z,10.30
2019-04-10T19:12:16.738Z,10.30
2019-04-10T19:16:23.498Z,10.30
2019-04-10T19:20:29.104Z,10.20
2019-04-10T19:24:36.420Z,10.10
2019-04-10T19:28:43.436Z,10.00
2019-04-10T19:32:49.816Z,10.10
2019-04-10T19:36:56.294Z,10.10
2019-04-10T19:41:02.840Z,10.00
2019-04-10T19:45:09.855Z,10.00
2019-04-10T19:49:16.412Z,10.00
2019-04-10T19:53:21.818Z,9.90
2019-04-10T19:57:26.913Z,9.90
2019-04-10T20:01:31.922Z,9.90
2019-04-10T20:05:37.282Z,9.90
2019-04-10T20:09:42.338Z,9.80
2019-04-10T20:13:49.111Z,9.80
2019-04-10T20:17:54.633Z,9.80
2019-04-10T20:22:00.756Z,9.80
2019-04-10T20:26:05.711Z,9.80
2019-04-10T20:30:11.920Z,9.90
2019-04-10T20:34:17.203Z,9.90
2019-04-10T20:38:23.136Z,9.80
2019-04-10T20:42:28.470Z,9.80
2019-04-10T20:46:33.951Z,9.80
2019-04-10T20:50:39.671Z,9.80
2019-04-10T20:54:45.431Z,9.70
2019-04-10T20:58:50.529Z,9.70
2019-04-10T21:02:56.441Z,9.70
2019-04-10T21:07:01.719Z,9.70
2019-04-10T21:11:07.944Z,9.70
2019-04-10T21:15:13.225Z,9.60
2019-04-10T21:19:18.508Z,9.60
2019-04-10T21:23:23.854Z,9.60
2019-04-10T21:27:29.982Z,9.60
2019-04-10T21:32:01.121Z,9.50
2019-04-10T21:36:07.156Z,9.40
2019-04-10T21:40:12.625Z,9.40
2019-04-10T21:44:18.283Z,9.50
2019-04-10T21:48:24.522Z,9.50
2019-04-10T21:52:30.743Z,9.50
2019-04-10T21:56:35.739Z,9.50
2019-04-10T22:01:01.521Z,9.50
2019-04-10T22:05:10.900Z,9.50
2019-04-10T22:09:28.573Z,9.50
2019-04-10T22:13:33.682Z,9.50
2019-04-10T22:17:38.677Z,9.40
2019-04-10T22:21:44.066Z,9.40
2019-04-10T22:25:50.094Z,9.40
2019-04-10T22:29:56.279Z,9.30
2019-04-10T22:34:03.004Z,9.30
2019-04-10T22:38:08.916Z,9.30
2019-04-10T22:42:14.998Z,9.30
2019-04-10T22:46:21.374Z,9.30
2019-04-10T22:50:27.507Z,9.30
2019-04-10T22:54:33.000Z,9.50
2019-04-10T22:58:37.880Z,9.50
2019-04-10T23:02:42.898Z,9.40
2019-04-10T23:06:47.915Z,9.30
2019-04-10T23:10:53.117Z,9.30
2019-04-10T23:14:58.744Z,9.30
2019-04-10T23:19:03.833Z,9.40
2019-04-10T23:23:08.953Z,9.40
2019-04-10T23:27:13.838Z,9.30
2019-04-10T23:31:19.523Z,9.40
2019-04-10T23:35:25.355Z,9.40
2019-04-10T23:39:30.460Z,9.30
2019-04-10T23:43:35.678Z,9.30
2019-04-10T23:47:40.623Z,9.30
2019-04-10T23:51:45.479Z,9.30
2019-04-10T23:55:50.580Z,9.40
2019-04-10T23:59:55.468Z,9.30
